Time;durP1;ratioP1;P1;durP2;ratioP2;P2;SDS_P1;SDS_P2;PMS_P1;PMS_P2;Temp;Humidity;BMP_temperature;BMP_pressure;BME280_temperature;BME280_humidity;BME280_pressure;Samples;Min_cycle;Max_cycle;Signal;HPM_P1;HPM_P2
2022/07/06 00:01:55;;;;;;;2.15;0.52;;;22.70;60.00;;;;;;5033977;28;20049;-59
2022/07/06 00:04:21;;;;;;;1.20;0.47;;;22.70;60.00;;;;;;5034658;28;20037;-59
2022/07/06 00:06:46;;;;;;;2.85;0.55;;;22.70;60.00;;;;;;5034252;28;20091;-59
2022/07/06 00:09:12;;;;;;;2.13;0.73;;;22.70;60.00;;;;;;5034133;28;20049;-59
2022/07/06 00:11:37;;;;;;;2.30;0.50;;;22.70;60.00;;;;;;5034511;28;20477;-59
2022/07/06 00:14:03;;;;;;;1.83;0.50;;;22.60;60.00;;;;;;5034364;28;20124;-59
2022/07/06 00:16:29;;;;;;;3.10;0.45;;;22.60;60.00;;;;;;5033866;28;20466;-59
2022/07/06 00:18:54;;;;;;;1.50;0.60;;;22.60;60.00;;;;;;5034162;28;20120;-59
2022/07/06 00:21:20;;;;;;;0.50;0.30;;;22.60;59.90;;;;;;5034101;28;20087;-59
2022/07/06 00:23:45;;;;;;;1.92;0.50;;;22.60;60.00;;;;;;5033421;28;20136;-59
2022/07/06 00:26:11;;;;;;;2.65;0.68;;;22.60;60.00;;;;;;5034068;28;20056;-59
2022/07/06 00:28:36;;;;;;;2.35;0.50;;;22.60;60.00;;;;;;5034176;28;20038;-59
2022/07/06 00:31:02;;;;;;;1.27;0.50;;;22.60;60.00;;;;;;5033490;28;20037;-60
2022/07/06 00:33:27;;;;;;;2.35;0.50;;;22.60;59.90;;;;;;5034430;28;20045;-59
2022/07/06 00:35:53;;;;;;;2.22;0.70;;;22.60;59.90;;;;;;5032568;28;20045;-59
2022/07/06 00:38:19;;;;;;;2.42;0.60;;;22.50;59.90;;;;;;5032329;28;20057;-59
2022/07/06 00:40:44;;;;;;;1.05;0.40;;;22.60;60.00;;;;;;5033805;28;20048;-59
2022/07/06 00:43:10;;;;;;;1.95;0.57;;;22.60;60.00;;;;;;5034072;28;20064;-59
2022/07/06 00:45:35;;;;;;;2.03;0.55;;;22.50;59.90;;;;;;5033562;28;20092;-59
2022/07/06 00:48:01;;;;;;;2.05;0.50;;;22.50;59.90;;;;;;5033758;28;20124;-59
2022/07/06 00:50:28;;;;;;;1.83;0.68;;;22.60;60.00;;;;;;5033561;28;20099;-59
2022/07/06 00:53:00;;;;;;;2.20;0.50;;;22.60;60.00;;;;;;5032876;28;20049;-59
2022/07/06 00:55:27;;;;;;;2.83;0.60;;;22.50;59.90;;;;;;5033847;28;20056;-60
2022/07/06 00:57:53;;;;;;;1.63;0.50;;;22.50;59.90;;;;;;5033504;28;20053;-59
2022/07/06 01:00:20;;;;;;;2.22;0.75;;;22.50;59.90;;;;;;5031895;28;20057;-59
2022/07/06 01:02:46;;;;;;;1.85;0.40;;;22.50;59.90;;;;;;5032753;28;20136;-58
2022/07/06 01:05:12;;;;;;;3.05;0.50;;;22.50;60.00;;;;;;5033282;28;20404;-59
2022/07/06 01:07:39;;;;;;;1.73;0.73;;;22.50;60.00;;;;;;5033378;28;20493;-59
2022/07/06 01:10:05;;;;;;;2.28;0.70;;;22.50;60.00;;;;;;5033047;28;20060;-59
2022/07/06 01:12:31;;;;;;;1.50;0.73;;;22.50;60.00;;;;;;5033260;28;20045;-59
2022/07/06 01:14:56;;;;;;;2.72;0.50;;;22.50;60.00;;;;;;5015412;28;20136;-59
2022/07/06 01:17:22;;;;;;;2.55;0.70;;;22.50;60.00;;;;;;5031664;28;20037;-59
2022/07/06 01:19:47;;;;;;;2.38;0.60;;;22.50;60.00;;;;;;5032682;28;20037;-59
2022/07/06 01:22:13;;;;;;;2.28;0.77;;;22.50;60.00;;;;;;5033441;28;20401;-59
2022/07/06 01:24:38;;;;;;;1.60;0.40;;;22.50;60.00;;;;;;5033146;28;20401;-59
2022/07/06 01:27:04;;;;;;;3.65;0.60;;;22.50;60.00;;;;;;5032293;28;20049;-59
2022/07/06 01:29:30;;;;;;;2.67;0.50;;;22.50;60.00;;;;;;5033387;28;20059;-58
2022/07/06 01:31:55;;;;;;;1.88;0.60;;;22.50;60.00;;;;;;5031213;28;20041;-59
2022/07/06 01:34:21;;;;;;;1.00;0.50;;;22.50;60.00;;;;;;5032264;28;20048;-59
2022/07/06 01:36:47;;;;;;;3.03;0.60;;;22.50;60.00;;;;;;5032937;28;20033;-58
2022/07/06 01:39:12;;;;;;;2.75;0.50;;;22.50;60.60;;;;;;5032922;28;20458;-59
2022/07/06 01:41:38;;;;;;;2.92;0.52;;;22.50;60.00;;;;;;5032550;28;20041;-60
2022/07/06 01:44:04;;;;;;;2.42;0.80;;;22.50;60.00;;;;;;5032655;28;20044;-59
2022/07/06 01:46:29;;;;;;;1.50;0.50;;;22.50;60.00;;;;;;5032406;28;20044;-59
2022/07/06 01:48:55;;;;;;;1.70;0.70;;;22.50;60.00;;;;;;5031931;28;20075;-60
2022/07/06 01:51:20;;;;;;;1.48;0.60;;;22.50;60.00;;;;;;5032479;28;20108;-60
2022/07/06 01:53:46;;;;;;;1.42;0.50;;;22.40;60.00;;;;;;5032040;28;20504;-60
2022/07/06 01:56:12;;;;;;;2.00;0.70;;;22.40;60.00;;;;;;5030896;28;20095;-59
2022/07/06 01:58:38;;;;;;;1.30;0.50;;;22.40;60.00;;;;;;5032609;28;20052;-59
2022/07/06 02:01:11;;;;;;;1.60;0.55;;;22.40;60.00;;;;;;5032517;28;20045;-60
2022/07/06 02:03:37;;;;;;;1.88;0.60;;;22.40;60.00;;;;;;5031919;28;20037;-60
2022/07/06 02:06:03;;;;;;;1.63;0.50;;;22.40;60.00;;;;;;5031915;28;20068;-60
2022/07/06 02:08:29;;;;;;;1.95;0.43;;;22.40;60.10;;;;;;5032019;28;20124;-60
2022/07/06 02:10:54;;;;;;;1.23;0.40;;;22.40;60.00;;;;;;5032335;28;20128;-60
2022/07/06 02:13:20;;;;;;;3.38;0.73;;;22.40;60.10;;;;;;5032569;28;20037;-60
2022/07/06 02:15:45;;;;;;;1.35;0.45;;;22.40;60.00;;;;;;5031535;28;20447;-59
2022/07/06 02:18:11;;;;;;;1.92;0.55;;;22.40;60.10;;;;;;5032129;28;20463;-60
2022/07/06 02:20:36;;;;;;;1.02;0.43;;;22.40;60.10;;;;;;5030894;28;20037;-59
2022/07/06 02:23:02;;;;;;;1.65;0.50;;;22.40;60.10;;;;;;5031522;28;20041;-60
2022/07/06 02:25:27;;;;;;;2.80;0.60;;;22.40;60.20;;;;;;5032719;28;20064;-60
2022/07/06 02:27:53;;;;;;;1.58;0.50;;;22.40;60.20;;;;;;5031762;28;20056;-60
2022/07/06 02:30:18;;;;;;;3.10;0.68;;;22.40;60.10;;;;;;5031791;28;20064;-60
2022/07/06 02:32:44;;;;;;;2.70;0.50;;;22.40;60.10;;;;;;5031849;28;20049;-60
2022/07/06 02:35:09;;;;;;;3.60;0.75;;;22.40;60.10;;;;;;5032412;28;20057;-60
2022/07/06 02:37:35;;;;;;;3.30;0.60;;;22.40;60.10;;;;;;5031855;28;20424;-60
2022/07/06 02:40:01;;;;;;;2.08;0.65;;;22.40;60.10;;;;;;5032059;28;20440;-59
2022/07/06 02:42:26;;;;;;;1.23;0.50;;;22.40;60.10;;;;;;5032082;28;20458;-59
2022/07/06 02:44:55;;;;;;;1.83;0.50;;;22.40;60.10;;;;;;5031523;28;20060;-60
2022/07/06 02:47:21;;;;;;;2.80;0.60;;;22.40;60.20;;;;;;5032106;28;20053;-60
2022/07/06 02:49:47;;;;;;;1.02;0.57;;;22.30;60.10;;;;;;5031647;28;20038;-60
2022/07/06 02:52:12;;;;;;;2.58;1.02;;;22.40;60.20;;;;;;5031838;28;20121;-60
2022/07/06 02:54:38;;;;;;;3.78;0.80;;;22.30;60.10;;;;;;5032381;28;20095;-59
2022/07/06 02:57:03;;;;;;;2.22;0.50;;;22.40;60.20;;;;;;5031477;28;20102;-59
2022/07/06 02:59:29;;;;;;;1.92;0.60;;;22.30;60.10;;;;;;5031508;28;20504;-59
2022/07/06 03:01:54;;;;;;;2.50;0.40;;;22.30;60.20;;;;;;5032311;28;20076;-60
2022/07/06 03:04:20;;;;;;;2.58;0.73;;;22.30;60.10;;;;;;5036120;28;20072;-59
2022/07/06 03:06:45;;;;;;;1.67;0.50;;;22.30;60.20;;;;;;5035000;28;20128;-60
2022/07/06 03:09:11;;;;;;;2.17;0.60;;;22.30;60.20;;;;;;5035823;28;20547;-60
2022/07/06 03:11:36;;;;;;;1.70;0.50;;;22.30;60.20;;;;;;5035344;28;20037;-60
2022/07/06 03:14:05;;;;;;;1.95;0.80;;;22.30;60.20;;;;;;5035248;28;20049;-60
2022/07/06 03:16:31;;;;;;;3.30;0.60;;;22.30;60.20;;;;;;5035450;28;20063;-60
2022/07/06 03:18:56;;;;;;;1.77;0.50;;;22.30;60.20;;;;;;5034780;28;20572;-59
2022/07/06 03:21:23;;;;;;;2.33;0.50;;;22.30;60.20;;;;;;5035778;28;20052;-59
2022/07/06 03:23:48;;;;;;;1.77;0.43;;;22.30;60.20;;;;;;5034740;28;20547;-59
2022/07/06 03:26:14;;;;;;;1.80;0.47;;;22.30;60.20;;;;;;5034981;28;20057;-60
2022/07/06 03:28:39;;;;;;;2.15;0.57;;;22.30;60.20;;;;;;5035205;28;20046;-60
2022/07/06 03:31:05;;;;;;;1.38;0.40;;;22.30;60.20;;;;;;5035194;28;20073;-60
2022/07/06 03:33:30;;;;;;;1.50;0.50;;;22.30;60.20;;;;;;5034878;28;20092;-60
2022/07/06 03:35:57;;;;;;;2.22;0.45;;;22.30;60.20;;;;;;5035123;28;20052;-60
2022/07/06 03:38:22;;;;;;;0.88;0.40;;;22.30;60.30;;;;;;5035057;28;20424;-60
2022/07/06 03:40:48;;;;;;;2.40;0.60;;;22.30;60.30;;;;;;5034684;28;20042;-60
2022/07/06 03:43:13;;;;;;;0.95;0.32;;;22.30;60.30;;;;;;5035044;28;20052;-60
2022/07/06 03:45:39;;;;;;;0.60;0.38;;;22.30;60.30;;;;;;5035123;28;20057;-60
2022/07/06 03:48:05;;;;;;;2.03;0.50;;;22.20;60.80;;;;;;5034524;28;20046;-60
2022/07/06 03:50:30;;;;;;;2.22;0.50;;;22.20;60.20;;;;;;5035186;28;20048;-59
2022/07/06 03:52:56;;;;;;;2.60;0.50;;;22.20;60.20;;;;;;5034670;28;20140;-59
2022/07/06 03:55:21;;;;;;;1.10;0.40;;;22.20;60.20;;;;;;5034629;28;20052;-59
2022/07/06 03:57:47;;;;;;;0.40;0.30;;;22.20;60.90;;;;;;5034361;28;20052;-60
2022/07/06 04:00:13;;;;;;;2.67;0.50;;;22.20;60.30;;;;;;5034767;28;20044;-59
2022/07/06 04:02:38;;;;;;;0.60;0.35;;;22.20;60.30;;;;;;5034096;28;20037;-59
2022/07/06 04:05:04;;;;;;;2.35;0.57;;;22.20;60.30;;;;;;5033774;28;20176;-60
2022/07/06 04:07:30;;;;;;;2.05;0.52;;;22.20;60.30;;;;;;5034496;28;20045;-59
2022/07/06 04:09:55;;;;;;;1.95;0.43;;;22.20;60.30;;;;;;5033761;28;20045;-59
2022/07/06 04:12:21;;;;;;;1.27;0.38;;;22.20;60.30;;;;;;5034143;28;20127;-59
2022/07/06 04:14:46;;;;;;;1.25;0.50;;;22.20;60.30;;;;;;5032475;28;20057;-59
2022/07/06 04:19:56;;;;;;;1.42;0.50;;;22.20;60.30;;;;;;5033962;28;20049;-59
2022/07/06 04:22:22;;;;;;;1.58;0.43;;;22.20;60.40;;;;;;5034098;28;20041;-59
2022/07/06 04:24:47;;;;;;;1.55;0.52;;;22.20;60.40;;;;;;5034056;28;20045;-60
2022/07/06 04:27:13;;;;;;;1.52;0.43;;;22.20;60.40;;;;;;5033981;28;20053;-59
2022/07/06 04:29:38;;;;;;;1.02;0.40;;;22.20;60.40;;;;;;5034051;28;20042;-59
2022/07/06 04:32:04;;;;;;;0.82;0.40;;;22.20;60.40;;;;;;5034108;28;20055;-60
2022/07/06 04:34:29;;;;;;;1.23;0.38;;;22.20;60.40;;;;;;5033926;28;20085;-60
2022/07/06 04:36:55;;;;;;;2.47;0.50;;;22.20;60.40;;;;;;5033221;28;20117;-60
2022/07/06 04:39:20;;;;;;;1.35;0.50;;;22.20;60.40;;;;;;5034035;28;20041;-60
2022/07/06 04:41:46;;;;;;;0.80;0.50;;;22.20;60.40;;;;;;5033714;28;20053;-59
2022/07/06 04:44:11;;;;;;;1.38;0.40;;;22.10;60.40;;;;;;5033769;28;20133;-60
2022/07/06 04:46:37;;;;;;;1.75;0.47;;;22.10;60.40;;;;;;5034000;28;20120;-60
2022/07/06 04:49:02;;;;;;;1.10;0.40;;;22.20;60.50;;;;;;5033396;28;20042;-60
2022/07/06 04:51:28;;;;;;;1.73;0.75;;;22.20;60.50;;;;;;5033024;28;20037;-60
2022/07/06 04:53:53;;;;;;;0.93;0.30;;;22.10;60.50;;;;;;5033541;28;20386;-59
2022/07/06 04:56:19;;;;;;;1.00;0.40;;;22.20;60.60;;;;;;5033613;28;20046;-59
2022/07/06 04:58:44;;;;;;;1.38;0.40;;;22.20;60.60;;;;;;5033065;28;20123;-59
2022/07/06 05:01:10;;;;;;;1.55;0.50;;;22.10;60.60;;;;;;5033279;28;20397;-60
2022/07/06 05:03:39;;;;;;;1.58;0.57;;;22.20;60.70;;;;;;5033314;28;20055;-60
2022/07/06 05:06:05;;;;;;;1.27;0.45;;;22.20;60.70;;;;;;5033082;28;20041;-59
2022/07/06 05:08:31;;;;;;;1.17;0.50;;;22.20;60.70;;;;;;5033506;28;20107;-59
2022/07/06 05:10:56;;;;;;;1.02;0.40;;;22.20;60.80;;;;;;5033013;28;20056;-59
2022/07/06 05:13:22;;;;;;;0.73;0.50;;;22.20;60.80;;;;;;5032891;28;20103;-60
2022/07/06 05:15:47;;;;;;;1.67;0.30;;;22.30;60.80;;;;;;5033021;28;20046;-59
2022/07/06 05:18:13;;;;;;;1.40;0.40;;;22.30;60.80;;;;;;5032517;28;20042;-59
2022/07/06 05:20:38;;;;;;;1.67;0.43;;;22.30;60.80;;;;;;5033274;28;20128;-60
2022/07/06 05:23:04;;;;;;;1.45;0.30;;;22.30;60.90;;;;;;5032556;28;20045;-59
2022/07/06 05:25:30;;;;;;;1.25;0.55;;;22.30;60.90;;;;;;5031740;28;20053;-60
2022/07/06 05:27:55;;;;;;;2.50;0.40;;;22.40;60.90;;;;;;5032967;28;20055;-59
2022/07/06 05:30:21;;;;;;;0.80;0.32;;;22.40;60.90;;;;;;5033011;28;20041;-59
2022/07/06 05:32:46;;;;;;;1.65;0.68;;;22.40;60.90;;;;;;5031838;28;20485;-59
2022/07/06 05:35:12;;;;;;;0.95;0.45;;;22.40;60.90;;;;;;5032673;28;20046;-58
2022/07/06 05:37:37;;;;;;;0.85;0.40;;;22.40;61.50;;;;;;5032673;28;20059;-59
2022/07/06 05:40:04;;;;;;;1.13;0.40;;;22.40;60.80;;;;;;5031838;28;20099;-59
2022/07/06 05:42:29;;;;;;;1.20;0.50;;;22.40;60.80;;;;;;5032870;28;20041;-59
2022/07/06 05:44:56;;;;;;;4.15;0.52;;;22.40;60.80;;;;;;5032459;28;20128;-59
2022/07/06 05:50:12;;;;;;;1.23;0.40;;;22.40;60.80;;;;;;5032683;28;20473;-59
2022/07/06 05:52:39;;;;;;;1.33;0.38;;;22.50;60.90;;;;;;5032666;28;20095;-59
2022/07/06 05:55:05;;;;;;;0.75;0.40;;;22.50;61.00;;;;;;5032427;28;20049;-59
2022/07/06 05:57:30;;;;;;;1.27;0.47;;;22.50;61.10;;;;;;5032462;28;20049;-59
2022/07/06 05:59:56;;;;;;;3.10;0.60;;;22.50;61.20;;;;;;5032467;28;20100;-59
2022/07/06 06:02:21;;;;;;;2.05;0.40;;;22.50;61.20;;;;;;5032042;28;20045;-59
2022/07/06 06:04:47;;;;;;;2.58;0.38;;;22.50;61.20;;;;;;5031968;28;20048;-59
2022/07/06 06:07:12;;;;;;;2.10;0.40;;;22.50;61.20;;;;;;5032476;28;20045;-59
2022/07/06 06:09:38;;;;;;;1.55;0.40;;;22.50;61.20;;;;;;5032080;28;20041;-58
2022/07/06 06:12:04;;;;;;;2.88;0.40;;;22.50;61.20;;;;;;5032041;28;20045;-58
2022/07/06 06:14:29;;;;;;;3.88;0.60;;;22.50;61.20;;;;;;5030760;28;20033;-59
2022/07/06 06:16:55;;;;;;;1.10;0.40;;;22.50;61.30;;;;;;5031748;28;20052;-59
2022/07/06 06:19:20;;;;;;;1.75;0.40;;;22.50;61.40;;;;;;5032237;28;20041;-59
2022/07/06 06:21:46;;;;;;;2.08;0.50;;;22.50;61.40;;;;;;5031011;28;20052;-59
2022/07/06 06:24:11;;;;;;;3.58;0.60;;;22.50;61.40;;;;;;5032169;28;20037;-59
2022/07/06 06:26:37;;;;;;;1.67;0.50;;;22.50;61.60;;;;;;5031643;28;20064;-59
2022/07/06 06:29:02;;;;;;;2.20;0.50;;;22.50;61.60;;;;;;5031169;28;20042;-59
2022/07/06 06:31:28;;;;;;;1.35;0.40;;;22.50;61.70;;;;;;5032003;28;20065;-59
2022/07/06 06:33:53;;;;;;;2.03;0.50;;;22.50;61.70;;;;;;5030921;28;20048;-59
2022/07/06 06:36:19;;;;;;;2.80;0.95;;;22.60;61.80;;;;;;5032894;28;20033;-60
2022/07/06 06:38:44;;;;;;;1.58;0.70;;;22.50;61.90;;;;;;5035880;28;20049;-61
2022/07/06 06:41:10;;;;;;;1.73;0.38;;;22.50;62.00;;;;;;5036043;28;20131;-60
2022/07/06 06:43:36;;;;;;;1.50;0.38;;;22.50;62.10;;;;;;5035701;28;20065;-60
2022/07/06 06:46:01;;;;;;;4.40;0.50;;;22.50;62.10;;;;;;5036129;28;20061;-59
2022/07/06 06:48:27;;;;;;;1.50;0.30;;;22.50;62.10;;;;;;5035996;28;20052;-60
2022/07/06 06:50:52;;;;;;;1.30;0.50;;;22.60;62.20;;;;;;5034731;28;20052;-59
2022/07/06 06:53:18;;;;;;;1.17;0.50;;;22.50;62.10;;;;;;5036059;28;20128;-59
2022/07/06 06:55:43;;;;;;;2.83;0.50;;;22.50;62.10;;;;;;5035981;28;20037;-59
2022/07/06 06:58:09;;;;;;;0.93;0.32;;;22.50;62.00;;;;;;5035559;28;20045;-59
2022/07/06 07:00:34;;;;;;;1.45;0.50;;;22.60;62.00;;;;;;5035855;28;20044;-58
2022/07/06 07:03:00;;;;;;;1.98;0.50;;;22.50;61.90;;;;;;5035299;28;20104;-58
2022/07/06 07:05:26;;;;;;;1.90;0.60;;;22.50;61.90;;;;;;5035455;28;20037;-59
2022/07/06 07:07:51;;;;;;;2.75;0.55;;;22.50;61.80;;;;;;5035381;28;20104;-58
2022/07/06 07:10:17;;;;;;;3.50;0.50;;;22.60;61.80;;;;;;5034232;28;20041;-59
2022/07/06 07:12:44;;;;;;;2.15;0.50;;;22.50;61.70;;;;;;5034137;28;20553;-58
2022/07/06 07:15:10;;;;;;;4.82;0.90;;;22.50;61.70;;;;;;5034939;28;20473;-58
2022/07/06 07:17:35;;;;;;;4.05;0.68;;;22.50;61.70;;;;;;5033020;28;20045;-59
2022/07/06 07:20:01;;;;;;;6.30;1.13;;;22.50;61.70;;;;;;5033930;28;20448;-59
2022/07/06 07:22:27;;;;;;;3.65;0.90;;;22.50;61.70;;;;;;5034387;28;20045;-57
2022/07/06 07:24:52;;;;;;;3.10;0.85;;;22.50;61.70;;;;;;5034241;28;20104;-57
2022/07/06 07:27:18;;;;;;;3.00;0.80;;;22.50;61.80;;;;;;5034968;28;20087;-58
2022/07/06 07:29:43;;;;;;;3.75;0.80;;;22.50;61.80;;;;;;5034999;28;20045;-59
2022/07/06 07:32:09;;;;;;;6.55;1.10;;;22.50;61.90;;;;;;5034222;28;20037;-59
2022/07/06 07:34:34;;;;;;;4.43;1.10;;;22.50;61.90;;;;;;5035040;28;20044;-60
2022/07/06 07:37:00;;;;;;;4.75;1.27;;;22.60;62.50;;;;;;5033498;28;20085;-59
2022/07/06 07:39:25;;;;;;;3.65;1.15;;;22.60;61.90;;;;;;5034608;28;20049;-60
2022/07/06 07:41:51;;;;;;;5.20;1.10;;;22.60;61.80;;;;;;5034838;28;20041;-60
2022/07/06 07:44:16;;;;;;;4.22;1.10;;;22.50;61.60;;;;;;5034992;28;20481;-59
2022/07/06 07:46:42;;;;;;;5.68;1.15;;;22.60;61.60;;;;;;5034007;28;20068;-58
2022/07/06 07:49:08;;;;;;;5.38;1.23;;;22.60;61.60;;;;;;5034322;28;20057;-60
2022/07/06 07:51:33;;;;;;;4.10;1.08;;;22.60;61.40;;;;;;5034823;28;20132;-60
2022/07/06 07:53:59;;;;;;;4.43;0.85;;;22.50;61.40;;;;;;5034400;28;20046;-60
2022/07/06 07:56:24;;;;;;;5.72;1.10;;;22.60;61.30;;;;;;5034826;28;20042;-59
2022/07/06 07:58:50;;;;;;;4.95;1.00;;;22.60;61.30;;;;;;5033101;28;20045;-60
2022/07/06 08:01:15;;;;;;;5.35;1.23;;;22.60;61.20;;;;;;5034444;28;20034;-59
2022/07/06 08:03:41;;;;;;;4.95;1.20;;;22.50;61.10;;;;;;5033905;28;20045;-59
2022/07/06 08:06:07;;;;;;;4.32;0.95;;;22.60;61.20;;;;;;5034617;28;20099;-58
2022/07/06 08:08:32;;;;;;;4.95;1.08;;;22.50;61.00;;;;;;5034218;28;20481;-59
2022/07/06 08:10:58;;;;;;;3.63;1.00;;;22.50;61.00;;;;;;5033916;28;20088;-59
2022/07/06 08:13:23;;;;;;;5.05;1.08;;;22.50;60.90;;;;;;5034339;28;20045;-59
2022/07/06 08:15:49;;;;;;;3.15;1.05;;;22.50;60.90;;;;;;5033221;28;20489;-59
2022/07/06 08:18:14;;;;;;;2.28;0.82;;;22.50;60.90;;;;;;5032738;28;20045;-59
2022/07/06 08:20:40;;;;;;;4.57;1.20;;;22.50;60.90;;;;;;5034137;28;20038;-59
2022/07/06 08:23:05;;;;;;;3.65;0.80;;;22.50;60.90;;;;;;5033839;28;20072;-59
2022/07/06 08:25:31;;;;;;;4.10;0.90;;;22.60;60.90;;;;;;5033496;28;20034;-59
2022/07/06 08:27:57;;;;;;;3.25;0.88;;;22.50;60.80;;;;;;5033258;28;20056;-58
2022/07/06 08:30:22;;;;;;;4.45;1.13;;;22.60;60.80;;;;;;5033894;28;20049;-58
2022/07/06 08:32:48;;;;;;;3.45;0.90;;;22.60;60.80;;;;;;5033215;28;20045;-58
2022/07/06 08:35:13;;;;;;;2.90;0.82;;;22.60;60.70;;;;;;5033503;28;20485;-58
2022/07/06 08:37:39;;;;;;;4.78;0.93;;;22.60;60.70;;;;;;5033860;28;20473;-58
2022/07/06 08:40:05;;;;;;;2.22;0.65;;;22.60;60.60;;;;;;5033787;28;20473;-58
2022/07/06 08:42:32;;;;;;;3.30;1.00;;;22.60;60.60;;;;;;5033285;28;20148;-59
2022/07/06 08:45:03;;;;;;;2.85;0.95;;;22.70;60.60;;;;;;5032340;28;20045;-59
2022/07/06 08:47:29;;;;;;;2.88;0.90;;;22.70;60.60;;;;;;5033483;28;20392;-59
2022/07/06 08:49:55;;;;;;;3.70;0.77;;;22.70;60.60;;;;;;5031656;28;20362;-58
2022/07/06 08:52:21;;;;;;;5.05;1.10;;;22.70;60.50;;;;;;5033988;28;20533;-59
2022/07/06 08:54:46;;;;;;;3.22;0.70;;;22.70;60.50;;;;;;5033215;28;20106;-59
2022/07/06 08:57:12;;;;;;;3.90;0.85;;;22.70;60.50;;;;;;5033177;28;20041;-59
2022/07/06 08:59:38;;;;;;;2.53;0.63;;;22.70;60.40;;;;;;5031092;28;20084;-59
2022/07/06 09:02:04;;;;;;;2.92;0.73;;;22.70;60.40;;;;;;5033328;28;20049;-59
2022/07/06 09:04:29;;;;;;;4.50;0.68;;;22.70;60.50;;;;;;5033153;28;20056;-59
2022/07/06 09:06:55;;;;;;;2.92;0.70;;;22.70;60.50;;;;;;5033351;28;20398;-59
2022/07/06 09:09:23;;;;;;;3.20;0.80;;;22.70;60.40;;;;;;5032106;28;20409;-60
2022/07/06 09:11:49;;;;;;;1.98;0.60;;;22.70;61.00;;;;;;5030643;28;20469;-59
2022/07/06 09:14:15;;;;;;;1.63;0.57;;;22.70;60.50;;;;;;5033299;28;20076;-59
2022/07/06 09:16:41;;;;;;;3.80;0.88;;;22.60;60.40;;;;;;5032575;28;20083;-59
2022/07/06 09:19:13;;;;;;;2.75;0.73;;;22.60;60.30;;;;;;5032578;28;20056;-59
2022/07/06 09:21:39;;;;;;;2.72;0.55;;;22.60;60.30;;;;;;5033056;28;20061;-59
2022/07/06 09:24:07;;;;;;;4.07;0.90;;;22.60;60.30;;;;;;5033022;28;20448;-59
2022/07/06 09:26:33;;;;;;;1.92;0.93;;;22.60;60.40;;;;;;5032568;28;20080;-59
2022/07/06 09:28:59;;;;;;;2.08;0.60;;;22.60;60.40;;;;;;5032699;28;20041;-59
2022/07/06 09:31:25;;;;;;;2.28;0.60;;;22.60;60.40;;;;;;5032300;28;20607;-59
2022/07/06 09:33:55;;;;;;;1.63;0.43;;;22.60;60.30;;;;;;5032752;28;20385;-59
2022/07/06 09:36:43;;;;;;;2.72;0.75;;;22.60;60.30;;;;;;5032819;28;20087;-59
2022/07/06 09:39:25;;;;;;;3.25;0.50;;;22.60;60.20;;;;;;5032487;28;20056;-59
2022/07/06 09:41:55;;;;;;;2.33;0.65;;;22.60;60.20;;;;;;5032095;28;20583;-59
2022/07/06 09:44:27;;;;;;;2.80;0.60;;;22.70;60.30;;;;;;5033140;28;20045;-59
2022/07/06 09:46:55;;;;;;;3.05;0.57;;;22.70;60.30;;;;;;5032114;28;20037;-61
2022/07/06 09:49:21;;;;;;;2.38;0.60;;;22.70;60.30;;;;;;5032679;28;20037;-59
2022/07/06 09:51:52;;;;;;;2.67;0.60;;;22.70;60.20;;;;;;5032547;28;20047;-59
2022/07/06 09:54:18;;;;;;;3.95;0.50;;;22.70;60.00;;;;;;5032362;28;20129;-59
2022/07/06 09:56:47;;;;;;;1.98;0.52;;;22.80;59.90;;;;;;5032252;28;20116;-59
2022/07/06 09:59:14;;;;;;;5.07;0.57;;;22.80;59.80;;;;;;5032516;28;20381;-59
2022/07/06 10:01:40;;;;;;;5.20;0.70;;;22.80;59.80;;;;;;5031888;28;20053;-58
2022/07/06 10:04:06;;;;;;;3.00;0.50;;;22.80;59.90;;;;;;5032340;28;20041;-59
2022/07/06 10:06:32;;;;;;;1.75;0.47;;;22.80;60.00;;;;;;5032086;28;20171;-59
2022/07/06 10:08:58;;;;;;;2.35;0.40;;;22.80;60.00;;;;;;5032539;28;20102;-60
2022/07/06 10:11:24;;;;;;;3.47;0.70;;;22.80;60.00;;;;;;5032282;28;20053;-59
2022/07/06 10:13:49;;;;;;;4.15;0.70;;;22.80;59.90;;;;;;5031854;28;20124;-59
2022/07/06 10:16:15;;;;;;;4.63;0.60;;;22.80;59.90;;;;;;5031693;28;20052;-59
2022/07/06 10:18:41;;;;;;;3.25;0.50;;;22.80;59.80;;;;;;5031661;28;20408;-59
2022/07/06 10:21:07;;;;;;;2.33;0.50;;;22.90;59.90;;;;;;5030669;28;20045;-60
2022/07/06 10:23:34;;;;;;;2.63;0.50;;;22.90;59.90;;;;;;5031169;28;20489;-60
2022/07/06 10:26:00;;;;;;;2.00;0.40;;;22.90;59.90;;;;;;5031638;28;20057;-60
2022/07/06 10:28:25;;;;;;;3.28;0.60;;;22.90;59.80;;;;;;5031721;28;20181;-59
2022/07/06 10:30:51;;;;;;;3.70;0.60;;;23.00;59.70;;;;;;5030680;28;20500;-59
2022/07/06 10:33:16;;;;;;;2.17;0.40;;;23.00;59.70;;;;;;5031126;28;20081;-59
2022/07/06 10:35:42;;;;;;;2.50;0.65;;;23.00;59.70;;;;;;5030533;28;20128;-59
2022/07/06 10:38:08;;;;;;;3.92;0.57;;;23.00;59.60;;;;;;5030622;28;20084;-59
2022/07/06 10:43:22;;;;;;;2.22;0.40;;;23.00;59.60;;;;;;5031953;28;20057;-59
2022/07/06 10:45:48;;;;;;;1.65;0.40;;;23.00;59.60;;;;;;5031641;28;20041;-59
2022/07/06 10:48:17;;;;;;;3.05;0.85;;;23.00;59.60;;;;;;5031741;28;20531;-59
2022/07/06 10:50:51;;;;;;;2.13;0.40;;;23.00;59.60;;;;;;5027733;28;20052;-59
2022/07/06 10:53:22;;;;;;;1.88;0.40;;;23.00;59.60;;;;;;5031573;28;20041;-59
2022/07/06 10:55:50;;;;;;;3.60;0.43;;;23.00;59.60;;;;;;5031371;28;20045;-60
2022/07/06 10:58:15;;;;;;;1.13;0.30;;;22.90;59.50;;;;;;5032263;28;20103;-59
2022/07/06 11:00:54;;;;;;;2.58;0.50;;;23.00;59.50;;;;;;5030983;28;20084;-59
2022/07/06 11:03:52;;;;;;;1.80;0.50;;;23.00;59.40;;;;;;5031666;28;20049;-59
2022/07/06 11:06:19;;;;;;;1.58;0.40;;;23.00;59.40;;;;;;5031114;28;20064;-59
2022/07/06 11:08:50;;;;;;;3.40;0.50;;;23.00;59.30;;;;;;5031619;28;20136;-59
2022/07/06 11:11:21;;;;;;;1.13;0.30;;;23.00;59.30;;;;;;5031225;28;20048;-59
2022/07/06 11:13:51;;;;;;;2.85;0.52;;;23.00;59.30;;;;;;5029469;28;20049;-59
2022/07/06 11:16:17;;;;;;;0.95;0.35;;;23.00;59.30;;;;;;5031696;28;20069;-59
2022/07/06 11:18:58;;;;;;;4.63;0.50;;;23.00;59.20;;;;;;5030274;28;20560;-59
2022/07/06 11:21:31;;;;;;;2.38;0.45;;;23.10;59.30;;;;;;5031784;28;20038;-59
2022/07/06 11:23:56;;;;;;;1.42;0.60;;;23.10;59.20;;;;;;5031991;28;20103;-59
2022/07/06 11:26:22;;;;;;;2.35;0.50;;;23.10;59.30;;;;;;5035366;28;20049;-59
2022/07/06 11:28:48;;;;;;;3.08;0.40;;;23.10;59.30;;;;;;5033127;28;20065;-59
2022/07/06 11:31:14;;;;;;;4.07;0.38;;;23.10;59.30;;;;;;5033747;28;20037;-58
2022/07/06 11:33:40;;;;;;;2.70;0.40;;;23.10;59.30;;;;;;5033292;28;20042;-59
2022/07/06 11:36:15;;;;;;;1.65;0.32;;;23.10;59.40;;;;;;5034857;28;20048;-59
2022/07/06 11:38:41;;;;;;;1.98;0.40;;;23.10;59.50;;;;;;5034150;28;20068;-59
2022/07/06 11:41:07;;;;;;;3.55;0.75;;;23.10;59.50;;;;;;5035268;28;20047;-58
2022/07/06 11:43:32;;;;;;;2.35;0.30;;;23.10;59.60;;;;;;5033458;28;20485;-60
2022/07/06 11:45:58;;;;;;;4.20;0.50;;;23.10;60.20;;;;;;5034295;28;20068;-60
2022/07/06 11:48:23;;;;;;;7.18;0.68;;;23.10;59.50;;;;;;5033667;28;20038;-60
2022/07/06 11:51:00;;;;;;;3.35;0.77;;;23.10;59.80;;;;;;5033872;28;20077;-60
2022/07/06 11:53:26;;;;;;;3.05;0.40;;;23.10;59.50;;;;;;5033950;28;20049;-59
2022/07/06 11:55:51;;;;;;;4.88;0.63;;;23.10;59.30;;;;;;5032917;28;20037;-59
2022/07/06 11:58:20;;;;;;;5.97;0.50;;;23.20;59.30;;;;;;5034817;28;20079;-59
2022/07/06 12:01:09;;;;;;;4.82;1.50;;;23.10;59.10;;;;;;5016679;28;20045;-59
2022/07/06 12:03:35;;;;;;;2.03;0.35;;;23.20;59.10;;;;;;5033500;28;20064;-60
2022/07/06 12:06:09;;;;;;;4.75;0.60;;;23.10;59.00;;;;;;5034770;28;20037;-60
2022/07/06 12:08:51;;;;;;;3.10;0.30;;;23.20;58.90;;;;;;5033358;28;20052;-60
2022/07/06 12:11:21;;;;;;;4.00;0.50;;;23.20;58.90;;;;;;5034504;28;20121;-60
2022/07/06 12:13:47;;;;;;;8.00;0.68;;;23.20;58.80;;;;;;5033977;28;20128;-59
2022/07/06 12:16:12;;;;;;;4.72;0.68;;;23.20;58.90;;;;;;5034612;28;20133;-59
2022/07/06 12:18:39;;;;;;;5.47;0.50;;;23.20;58.90;;;;;;5034308;28;20539;-59
2022/07/06 12:21:06;;;;;;;4.78;0.35;;;23.20;59.00;;;;;;5033595;28;20401;-59
2022/07/06 12:23:58;;;;;;;5.57;0.57;;;23.20;59.00;;;;;;5032988;28;20088;-59
2022/07/06 12:26:26;;;;;;;2.55;0.50;;;23.20;59.20;;;;;;5033822;28;20057;-58
2022/07/06 12:29:05;;;;;;;4.78;0.50;;;23.20;59.30;;;;;;5033048;28;20508;-59
2022/07/06 12:31:36;;;;;;;2.75;0.30;;;23.20;59.50;;;;;;5034012;28;20049;-59
2022/07/06 12:34:02;;;;;;;4.47;0.40;;;23.20;59.60;;;;;;5033626;28;20056;-58
2022/07/06 12:36:28;;;;;;;3.30;0.50;;;23.20;59.60;;;;;;5033593;28;20049;-58
2022/07/06 12:38:54;;;;;;;3.67;0.60;;;23.20;59.60;;;;;;5033003;28;20095;-58
2022/07/06 12:41:47;;;;;;;4.35;0.47;;;23.20;59.70;;;;;;5033579;28;20045;-58
2022/07/06 12:44:12;;;;;;;8.40;0.50;;;23.30;59.70;;;;;;5033182;28;20115;-58
2022/07/06 12:46:39;;;;;;;3.50;0.40;;;23.30;59.80;;;;;;5034013;28;20481;-58
2022/07/06 12:49:18;;;;;;;4.80;0.50;;;23.30;59.80;;;;;;5033194;28;20461;-58
2022/07/06 12:52:06;;;;;;;2.58;0.35;;;23.20;59.80;;;;;;5033441;28;20045;-59
2022/07/06 12:54:39;;;;;;;3.28;0.50;;;23.20;59.70;;;;;;5034000;28;20054;-59